Terminal Aerodrome Forecast
Issued by NWS Binghamton, NY

Home | Current Version | Previous Version | Text Only | Print | Product List | Glossary On
Versions: 1 2 3 4 5 6 7 8 9 10 11 12 13 14 15 16 17 18 19
000
FTUS41 KBGM 231517 AAA
TAFSYR
TAF AMD
KSYR 231517Z 2315/2412 28008KT P6SM SKC
     FM240100 10004KT P6SM BKN150
     FM240700 14007KT P6SM OVC110
     FM241000 15007KT P6SM BKN050 OVC100
      TEMPO 2410/2412 5SM -FZRAPL BKN050=

USA.gov is the U.S. government's official web portal to all federal, state and local government web resources and services.